Time;durP1;ratioP1;P1;durP2;ratioP2;P2;SDS_P1;SDS_P2;PMS_P1;PMS_P2;Temp;Humidity;BMP_temperature;BMP_pressure;BME280_temperature;BME280_humidity;BME280_pressure;Samples;Min_cycle;Max_cycle;Signal;HPM_P1;HPM_P2
2021/10/15 00:01:14;;;;;;;7.30;5.40;;;;;;;9.89;77.17;100253.33;138663;1193;107973;-81
2021/10/15 00:04:19;;;;;;;7.20;5.40;;;;;;;9.90;77.37;100247.36;138688;1193;108488;-82
2021/10/15 00:07:25;;;;;;;7.00;4.90;;;;;;;9.91;77.29;100242.13;140067;1192;108569;-81
2021/10/15 00:10:30;;;;;;;7.60;5.10;;;;;;;9.93;77.18;100240.19;139416;1193;108669;-81
2021/10/15 00:13:35;;;;;;;6.80;5.50;;;;;;;9.96;77.46;100233.27;138757;1193;109109;-82
2021/10/15 00:16:41;;;;;;;7.40;6.10;;;;;;;9.98;77.45;100231.15;138697;1193;107931;-81
2021/10/15 00:19:46;;;;;;;8.60;6.10;;;;;;;9.97;77.50;100232.14;138772;1194;108421;-81
2021/10/15 00:22:52;;;;;;;9.10;5.90;;;;;;;9.95;77.41;100230.55;140402;1192;108582;-81
2021/10/15 00:25:57;;;;;;;11.20;7.40;;;;;;;9.97;77.50;100232.84;140174;1193;108387;-80
2021/10/15 00:29:05;;;;;;;10.90;7.70;;;;;;;10.00;77.53;100235.73;140087;1193;108454;-83
2021/10/15 00:32:10;;;;;;;11.70;8.10;;;;;;;10.03;77.64;100231.68;138842;1192;107141;-81
2021/10/15 00:35:16;;;;;;;13.30;8.80;;;;;;;10.07;77.57;100232.59;138652;1193;108517;-80
2021/10/15 00:38:21;;;;;;;12.40;8.20;;;;;;;10.08;77.52;100233.21;138668;1194;108555;-80
2021/10/15 00:41:27;;;;;;;13.50;8.00;;;;;;;10.08;77.87;100226.09;138715;1193;108505;-80
2021/10/15 00:44:32;;;;;;;14.80;9.50;;;;;;;10.09;77.67;100224.73;138730;1193;107605;-80
2021/10/15 00:47:38;;;;;;;17.00;10.70;;;;;;;10.13;77.92;100220.13;138842;1193;108647;-81
2021/10/15 00:50:46;;;;;;;16.40;11.30;;;;;;;10.15;78.07;100211.84;138775;1193;108549;-81
2021/10/15 00:53:52;;;;;;;17.30;10.70;;;;;;;10.15;77.80;100207.80;139007;1192;107703;-81
2021/10/15 00:56:57;;;;;;;15.70;10.30;;;;;;;10.14;78.23;100205.36;138716;1193;108436;-81
2021/10/15 01:00:03;;;;;;;18.90;12.70;;;;;;;10.15;78.20;100204.41;138619;1192;108584;-80
2021/10/15 01:03:09;;;;;;;20.20;12.50;;;;;;;10.18;78.32;100203.03;138822;1194;107758;-79
2021/10/15 01:06:15;;;;;;;22.60;14.20;;;;;;;10.22;78.17;100202.46;138760;1192;107500;-79
2021/10/15 01:09:23;;;;;;;21.50;14.20;;;;;;;10.23;78.45;100198.85;138668;1193;108405;-82
2021/10/15 01:12:30;;;;;;;20.90;13.30;;;;;;;10.20;78.59;100199.15;138795;1193;108282;-79
2021/10/15 01:15:35;;;;;;;20.10;12.70;;;;;;;10.18;78.68;100198.94;138700;1192;107179;-83
2021/10/15 01:18:44;;;;;;;20.40;13.20;;;;;;;10.17;78.52;100196.16;138893;1192;108393;-82
2021/10/15 01:21:50;;;;;;;23.30;15.10;;;;;;;10.20;78.85;100196.95;138790;1193;107413;-83
2021/10/15 01:24:55;;;;;;;23.00;15.00;;;;;;;10.21;78.48;100196.16;138761;1193;108476;-81
2021/10/15 01:28:01;;;;;;;24.00;14.00;;;;;;;10.22;78.69;100197.12;138758;1193;108592;-82
2021/10/15 01:31:06;;;;;;;21.20;13.50;;;;;;;10.22;78.97;100193.19;138758;1193;108551;-82
2021/10/15 01:34:11;;;;;;;23.50;14.90;;;;;;;10.24;78.75;100191.29;138770;1193;108576;-82
2021/10/15 01:37:17;;;;;;;23.60;15.00;;;;;;;10.25;78.72;100188.50;138733;1193;108545;-83
2021/10/15 01:40:22;;;;;;;25.00;15.90;;;;;;;10.27;78.83;100185.63;138732;1193;108569;-81
2021/10/15 01:43:31;;;;;;;25.00;14.80;;;;;;;10.29;78.73;100186.70;138832;1192;108429;-81
2021/10/15 01:46:36;;;;;;;23.50;14.20;;;;;;;10.30;78.82;100185.38;138762;1193;108365;-80
2021/10/15 01:49:41;;;;;;;23.30;16.10;;;;;;;10.31;78.96;100184.41;138688;1193;108427;-80
2021/10/15 01:52:47;;;;;;;22.90;15.70;;;;;;;10.33;78.91;100182.23;138640;1177;108468;-80
2021/10/15 01:55:52;;;;;;;23.20;15.30;;;;;;;10.37;78.78;100184.54;138764;1193;108545;-80
2021/10/15 01:58:58;;;;;;;21.80;14.10;;;;;;;10.38;79.10;100181.89;138646;1193;108270;-80
2021/10/15 02:02:03;;;;;;;21.30;13.50;;;;;;;10.38;79.07;100178.71;138769;1193;108435;-82
2021/10/15 02:05:12;;;;;;;25.80;17.10;;;;;;;10.39;79.01;100176.09;138733;1193;107349;-81
2021/10/15 02:08:17;;;;;;;34.30;20.30;;;;;;;10.43;78.94;100173.95;138711;1193;108601;-81
2021/10/15 02:11:23;;;;;;;25.10;17.10;;;;;;;10.46;78.81;100170.78;138864;1193;108571;-81
2021/10/15 02:14:28;;;;;;;22.40;15.40;;;;;;;10.47;78.92;100166.59;138822;1193;108566;-79
2021/10/15 02:17:33;;;;;;;22.20;14.20;;;;;;;10.47;79.26;100169.84;138666;1192;108487;-81
2021/10/15 02:20:39;;;;;;;19.10;12.90;;;;;;;10.44;79.02;100169.73;138741;1193;108684;-81
2021/10/15 02:23:46;;;;;;;21.60;15.00;;;;;;;10.44;79.06;100168.70;138774;1192;106938;-81
2021/10/15 02:26:51;;;;;;;19.80;13.80;;;;;;;10.46;78.95;100166.55;138854;1193;108639;-81
2021/10/15 02:29:57;;;;;;;20.60;14.40;;;;;;;10.48;79.05;100166.16;138812;1178;108664;-79
2021/10/15 02:33:03;;;;;;;20.50;13.30;;;;;;;10.48;78.89;100166.12;138673;1193;108470;-80
2021/10/15 02:36:08;;;;;;;16.80;11.90;;;;;;;10.48;79.23;100161.55;138752;1193;106834;-82
2021/10/15 02:39:14;;;;;;;18.90;13.30;;;;;;;10.49;79.36;100165.86;138771;1193;108504;-82
2021/10/15 02:42:20;;;;;;;18.20;13.40;;;;;;;10.52;79.18;100166.46;138846;1193;108488;-82
2021/10/15 02:45:25;;;;;;;17.40;12.90;;;;;;;10.54;79.26;100168.77;138754;1194;108611;-82
2021/10/15 02:48:30;;;;;;;18.10;12.80;;;;;;;10.54;79.20;100161.27;138903;1192;108459;-82
2021/10/15 02:51:37;;;;;;;16.60;11.10;;;;;;;10.52;79.15;100155.77;138779;1186;108428;-81
2021/10/15 02:54:43;;;;;;;14.50;9.90;;;;;;;10.51;79.14;100154.85;138781;1193;108355;-80
2021/10/15 02:57:51;;;;;;;15.00;11.20;;;;;;;10.51;79.26;100156.02;138597;1193;107481;-81
2021/10/15 03:00:57;;;;;;;16.20;11.80;;;;;;;10.53;79.56;100156.70;138880;1196;109422;-80
2021/10/15 03:04:03;;;;;;;14.70;10.90;;;;;;;10.55;79.08;100160.74;138807;1193;108194;-80
2021/10/15 03:07:08;;;;;;;13.90;9.70;;;;;;;10.55;79.23;100162.44;138809;1192;108639;-81
2021/10/15 03:10:13;;;;;;;11.70;8.50;;;;;;;10.55;79.28;100160.81;139622;1193;108612;-83
2021/10/15 03:13:19;;;;;;;12.80;10.10;;;;;;;10.57;79.33;100163.85;138761;1193;108717;-83
2021/10/15 03:16:24;;;;;;;11.70;9.30;;;;;;;10.59;79.35;100156.84;138733;1193;107148;-82
2021/10/15 03:19:30;;;;;;;14.10;10.20;;;;;;;10.63;79.17;100156.66;138783;1192;108427;-80
2021/10/15 03:22:35;;;;;;;14.70;11.00;;;;;;;10.64;79.18;100155.16;138745;1192;108350;-79
2021/10/15 03:25:41;;;;;;;12.50;9.30;;;;;;;10.62;79.28;100153.49;139221;1193;107354;-80
2021/10/15 03:28:46;;;;;;;13.10;9.90;;;;;;;10.60;79.51;100148.15;139300;1192;108459;-81
2021/10/15 03:31:51;;;;;;;14.60;10.70;;;;;;;10.60;79.23;100148.14;138644;1193;108568;-81
2021/10/15 03:34:57;;;;;;;14.10;10.30;;;;;;;10.64;79.33;100145.89;138739;1193;108446;-81
2021/10/15 03:38:02;;;;;;;13.80;10.50;;;;;;;10.64;79.50;100148.00;139090;1193;108570;-82
2021/10/15 03:41:07;;;;;;;13.90;10.20;;;;;;;10.64;79.72;100146.56;138824;1192;108564;-80
2021/10/15 03:44:13;;;;;;;16.20;11.50;;;;;;;10.63;79.67;100143.45;138792;1193;108949;-81
2021/10/15 03:47:18;;;;;;;14.40;10.20;;;;;;;10.62;79.51;100144.39;138722;1192;108563;-82
2021/10/15 03:50:24;;;;;;;15.30;11.10;;;;;;;10.66;79.51;100143.67;138786;1192;108344;-83
2021/10/15 03:53:30;;;;;;;14.70;11.00;;;;;;;10.70;79.25;100148.44;138924;1193;108469;-83
2021/10/15 03:56:35;;;;;;;14.70;10.70;;;;;;;10.72;79.56;100146.27;139046;1193;108431;-83
2021/10/15 03:59:41;;;;;;;16.10;11.30;;;;;;;10.71;79.42;100145.67;139025;1193;108358;-78
2021/10/15 04:02:47;;;;;;;16.60;10.70;;;;;;;10.69;79.52;100150.54;139014;1193;108346;-82
2021/10/15 04:05:53;;;;;;;17.80;12.60;;;;;;;10.69;79.57;100147.36;140066;1192;109401;-81
2021/10/15 04:08:58;;;;;;;17.40;12.30;;;;;;;10.70;79.71;100144.50;139408;1192;107539;-78
2021/10/15 04:12:04;;;;;;;15.60;12.20;;;;;;;10.73;79.70;100137.85;139284;1193;108500;-80
2021/10/15 04:15:12;;;;;;;15.70;11.30;;;;;;;10.73;79.65;100138.05;139910;1192;108450;-80
2021/10/15 04:18:17;;;;;;;14.80;10.60;;;;;;;10.71;79.58;100139.07;139291;1192;108564;-76
2021/10/15 04:21:22;;;;;;;15.80;12.00;;;;;;;10.71;79.85;100139.27;138907;1192;108314;-77
2021/10/15 04:24:28;;;;;;;20.00;13.70;;;;;;;10.73;79.62;100136.05;139049;1192;108483;-79
2021/10/15 04:27:33;;;;;;;17.20;12.20;;;;;;;10.74;79.52;100131.98;139114;1192;108446;-79
2021/10/15 04:30:39;;;;;;;22.50;14.30;;;;;;;10.76;79.50;100129.34;138841;1192;108422;-77
2021/10/15 04:33:44;;;;;;;16.40;11.40;;;;;;;10.77;79.76;100124.73;139333;1192;108685;-77
2021/10/15 04:36:50;;;;;;;15.20;11.50;;;;;;;10.80;79.84;100124.32;138996;1192;108535;-78
2021/10/15 04:39:55;;;;;;;16.70;12.30;;;;;;;10.83;79.46;100126.97;138679;1177;108549;-80
2021/10/15 04:43:00;;;;;;;17.60;12.90;;;;;;;10.87;79.90;100124.52;138786;1193;107612;-78
2021/10/15 04:46:06;;;;;;;19.10;13.10;;;;;;;10.88;79.67;100124.23;138696;1192;108642;-82
2021/10/15 04:49:11;;;;;;;18.30;12.50;;;;;;;10.87;79.80;100120.02;139518;1192;108553;-83
2021/10/15 04:52:17;;;;;;;16.40;11.40;;;;;;;10.84;79.83;100120.27;138935;1192;108487;-79
2021/10/15 04:55:22;;;;;;;17.50;13.20;;;;;;;10.85;79.88;100115.00;138628;1192;108502;-78
2021/10/15 04:58:27;;;;;;;17.70;13.50;;;;;;;10.87;79.77;100112.35;138845;1193;108649;-81
2021/10/15 05:01:33;;;;;;;17.00;12.70;;;;;;;10.89;79.68;100115.73;139044;1192;108585;-79
2021/10/15 05:04:40;;;;;;;17.10;13.10;;;;;;;10.89;79.89;100116.95;138689;1192;108369;-76
2021/10/15 05:07:45;;;;;;;16.30;12.20;;;;;;;10.88;79.71;100112.81;138643;1192;107903;-77
2021/10/15 05:10:50;;;;;;;15.60;11.60;;;;;;;10.87;79.66;100118.01;138638;1193;108481;-77
2021/10/15 05:13:56;;;;;;;18.60;13.10;;;;;;;10.89;79.62;100117.16;138693;1194;107473;-77
2021/10/15 05:17:03;;;;;;;18.80;13.40;;;;;;;10.92;79.80;100112.37;138691;1192;108476;-77
2021/10/15 05:20:11;;;;;;;18.60;13.20;;;;;;;10.96;80.17;100107.85;138727;1193;109336;-76
2021/10/15 05:23:17;;;;;;;19.30;14.00;;;;;;;10.98;79.78;100108.20;138677;1192;108620;-76
2021/10/15 05:26:22;;;;;;;16.80;11.50;;;;;;;10.99;80.05;100107.23;138745;1193;107509;-78
2021/10/15 05:29:27;;;;;;;15.60;11.80;;;;;;;10.98;79.49;100107.42;138658;1193;106629;-76
2021/10/15 05:32:33;;;;;;;16.20;12.30;;;;;;;11.00;79.93;100108.34;138626;1192;108569;-75
2021/10/15 05:35:38;;;;;;;16.50;11.70;;;;;;;11.04;79.90;100106.39;138637;1192;106915;-74
2021/10/15 05:38:44;;;;;;;17.50;11.90;;;;;;;11.06;79.77;100102.90;138639;1193;108424;-77
2021/10/15 05:41:49;;;;;;;18.30;13.10;;;;;;;11.09;79.69;100104.98;138772;1192;108797;-77
2021/10/15 05:44:54;;;;;;;17.40;11.70;;;;;;;11.09;79.72;100110.12;138632;1192;108392;-75
2021/10/15 05:48:00;;;;;;;15.60;10.80;;;;;;;11.08;79.60;100113.45;138625;1193;108487;-78
2021/10/15 05:51:05;;;;;;;15.80;11.00;;;;;;;11.09;79.98;100117.17;138682;1192;108372;-78
2021/10/15 05:54:15;;;;;;;15.50;11.30;;;;;;;11.13;79.96;100116.92;138852;1192;108413;-77
2021/10/15 05:58:49;;;;;;;15.90;11.90;;;;;;;11.18;79.56;100116.97;138889;1192;108289;-77
2021/10/15 06:01:02;;;;;;;16.70;12.10;;;;;;;11.22;79.63;100107.84;138699;1186;108118;-78
2021/10/15 06:05:02;;;;;;;14.90;10.20;;;;;;;11.24;79.78;100110.72;138786;1192;108406;-78
2021/10/15 06:14:34;;;;;;;17.70;11.90;;;;;;;11.29;79.63;100104.42;138631;1192;108384;-79
2021/10/15 06:17:43;;;;;;;15.80;11.30;;;;;;;11.33;79.79;100103.50;138757;1192;108287;-78
2021/10/15 06:20:49;;;;;;;15.00;11.30;;;;;;;11.37;79.50;100103.61;138624;1192;109691;-77
2021/10/15 06:23:55;;;;;;;14.30;10.10;;;;;;;11.39;79.49;100107.66;138909;1192;108552;-78
2021/10/15 06:27:00;;;;;;;14.10;9.40;;;;;;;11.38;79.61;100108.77;138842;1192;108515;-76
2021/10/15 06:30:07;;;;;;;14.40;10.30;;;;;;;11.42;79.32;100102.93;138829;1184;108556;-78
2021/10/15 06:33:12;;;;;;;13.30;9.90;;;;;;;11.48;79.49;100101.88;138844;1192;107328;-78
2021/10/15 06:36:17;;;;;;;15.80;10.00;;;;;;;11.53;79.21;100099.26;138853;1192;108545;-77
2021/10/15 06:39:23;;;;;;;14.40;10.80;;;;;;;11.57;79.26;100095.22;138985;1192;108559;-78
2021/10/15 06:42:28;;;;;;;14.40;9.90;;;;;;;11.57;79.42;100099.86;138886;1193;108665;-78
2021/10/15 06:45:34;;;;;;;17.20;11.70;;;;;;;11.58;79.04;100101.20;138951;1192;108488;-79
2021/10/15 06:48:39;;;;;;;14.80;10.70;;;;;;;11.58;79.04;100103.10;138801;1192;108658;-81
2021/10/15 06:51:45;;;;;;;14.00;9.90;;;;;;;11.61;79.01;100104.48;138838;1192;108582;-79
2021/10/15 06:54:51;;;;;;;13.70;10.90;;;;;;;11.64;79.24;100098.74;138844;1192;108708;-79
2021/10/15 06:57:56;;;;;;;15.90;10.60;;;;;;;11.66;78.80;100091.57;138837;1193;108596;-79
2021/10/15 07:01:02;;;;;;;12.80;9.80;;;;;;;11.68;79.42;100083.16;138878;1192;108374;-78
2021/10/15 07:04:07;;;;;;;13.10;9.30;;;;;;;11.75;79.09;100079.79;138857;1192;108358;-77
2021/10/15 07:07:13;;;;;;;14.30;10.30;;;;;;;11.82;78.84;100080.27;138878;1185;107401;-78
2021/10/15 07:10:18;;;;;;;13.80;10.50;;;;;;;11.91;79.07;100079.35;138638;1192;108583;-79
2021/10/15 07:13:24;;;;;;;14.00;10.40;;;;;;;12.03;78.68;100082.50;138684;1192;108580;-79
2021/10/15 07:16:30;;;;;;;13.50;10.20;;;;;;;12.12;78.54;100084.93;138797;1192;109583;-78
2021/10/15 07:19:36;;;;;;;12.90;8.60;;;;;;;12.17;78.58;100087.94;138807;1184;108449;-79
2021/10/15 07:22:41;;;;;;;13.40;9.50;;;;;;;12.26;78.55;100090.02;138834;1192;109309;-78
2021/10/15 07:25:47;;;;;;;16.60;9.60;;;;;;;12.33;78.34;100095.27;138865;1192;108828;-78
2021/10/15 07:28:52;;;;;;;13.40;9.80;;;;;;;12.45;78.42;100100.05;138818;1184;108351;-77
2021/10/15 07:31:58;;;;;;;12.70;9.80;;;;;;;12.55;78.26;100098.90;138819;1184;107383;-77
2021/10/15 07:35:05;;;;;;;14.40;10.30;;;;;;;12.65;78.02;100098.89;138809;1184;107853;-76
2021/10/15 07:38:11;;;;;;;13.70;9.20;;;;;;;12.72;77.99;100099.23;138771;1193;108506;-77
2021/10/15 07:41:18;;;;;;;11.60;8.80;;;;;;;12.79;77.88;100097.35;138881;1184;108635;-79
2021/10/15 07:44:23;;;;;;;13.00;9.70;;;;;;;12.90;77.90;100094.71;138934;1184;108558;-78
2021/10/15 07:47:28;;;;;;;12.50;9.80;;;;;;;13.02;77.66;100095.50;139059;1184;108476;-79
2021/10/15 07:50:34;;;;;;;14.30;9.80;;;;;;;13.13;77.58;100094.59;138851;1192;108474;-79
2021/10/15 07:53:39;;;;;;;12.90;9.80;;;;;;;13.25;77.63;100094.17;138915;1192;108559;-80
2021/10/15 07:56:45;;;;;;;14.40;10.90;;;;;;;13.34;77.26;100096.73;138858;1184;108591;-79
2021/10/15 07:59:50;;;;;;;14.70;11.00;;;;;;;13.35;77.16;100095.54;138967;1184;108514;-81
2021/10/15 08:02:55;;;;;;;12.00;9.30;;;;;;;13.34;77.16;100100.09;138898;1184;107984;-79
2021/10/15 08:06:01;;;;;;;12.70;9.30;;;;;;;13.42;77.20;100094.47;139005;1184;108409;-80
2021/10/15 08:09:06;;;;;;;13.30;9.80;;;;;;;13.50;76.96;100097.40;139313;1192;107459;-77
2021/10/15 08:12:12;;;;;;;13.80;10.20;;;;;;;13.59;76.88;100089.80;139144;1192;108400;-75
2021/10/15 08:15:18;;;;;;;15.40;11.50;;;;;;;13.69;76.94;100093.80;138939;1192;108477;-75
2021/10/15 08:18:24;;;;;;;13.70;10.70;;;;;;;13.74;76.41;100091.01;139108;1186;108482;-75
2021/10/15 08:21:30;;;;;;;13.50;8.90;;;;;;;13.74;76.34;100090.68;139051;1186;108379;-75
2021/10/15 08:24:36;;;;;;;12.20;8.90;;;;;;;13.79;76.47;100081.84;138894;1185;108378;-74
2021/10/15 08:27:41;;;;;;;13.60;10.30;;;;;;;13.81;76.23;100084.16;138901;1186;108468;-75
2021/10/15 08:30:46;;;;;;;12.30;9.70;;;;;;;13.83;75.90;100079.13;138850;1185;108335;-82
2021/10/15 08:33:52;;;;;;;12.60;9.70;;;;;;;13.88;76.02;100078.69;138778;1186;106851;-82
2021/10/15 08:36:57;;;;;;;13.90;10.10;;;;;;;14.00;76.17;100075.91;139065;1192;107414;-82
2021/10/15 08:40:03;;;;;;;14.50;11.10;;;;;;;14.07;75.72;100076.54;138963;1185;108640;-82
2021/10/15 08:43:08;;;;;;;13.70;10.10;;;;;;;14.12;75.51;100078.26;139131;1186;108569;-81
2021/10/15 08:46:14;;;;;;;11.50;9.10;;;;;;;14.14;75.38;100073.71;139285;1185;108895;-81
2021/10/15 08:49:19;;;;;;;11.40;8.80;;;;;;;14.18;75.42;100073.29;139088;1185;108821;-83
2021/10/15 08:52:25;;;;;;;14.90;10.60;;;;;;;14.23;75.03;100071.48;138998;1185;108650;-81
2021/10/15 08:55:30;;;;;;;12.10;10.00;;;;;;;14.27;75.27;100068.94;139131;1192;108593;-81
2021/10/15 08:58:47;;;;;;;12.80;9.20;;;;;;;14.32;74.89;100068.23;138967;1186;108610;-81
2021/10/15 09:01:52;;;;;;;14.50;11.50;;;;;;;14.39;75.29;100066.52;139113;1185;107882;-81
2021/10/15 09:04:59;;;;;;;16.00;11.80;;;;;;;14.41;75.03;100063.34;139367;1192;108636;-81
2021/10/15 09:08:05;;;;;;;13.40;10.40;;;;;;;14.39;74.73;100064.30;139040;1192;108782;-81
2021/10/15 09:11:28;;;;;;;12.00;9.30;;;;;;;14.35;74.65;100063.23;139082;1192;108489;-81
2021/10/15 09:14:35;;;;;;;15.80;9.80;;;;;;;14.32;74.69;100067.46;139174;1186;108367;-82
2021/10/15 09:17:50;;;;;;;14.10;10.30;;;;;;;14.33;74.27;100059.66;139171;1185;108557;-81
2021/10/15 09:20:56;;;;;;;16.40;10.60;;;;;;;14.37;74.32;100060.23;138884;1185;108760;-81
2021/10/15 09:24:02;;;;;;;15.50;10.70;;;;;;;14.49;74.08;100054.66;139366;1185;108309;-81
2021/10/15 09:27:29;;;;;;;13.30;10.80;;;;;;;14.59;74.15;100055.03;138715;1186;107400;-81
2021/10/15 09:30:34;;;;;;;14.10;10.70;;;;;;;14.69;73.89;100047.48;138941;1192;108367;-81
2021/10/15 09:33:50;;;;;;;11.90;9.60;;;;;;;14.68;73.81;100043.86;139030;1193;108482;-80
2021/10/15 09:36:56;;;;;;;11.70;9.30;;;;;;;14.68;73.69;100045.15;138764;1185;107376;-81
2021/10/15 09:40:08;;;;;;;10.90;8.80;;;;;;;14.72;73.57;100038.71;138860;1193;108193;-81
2021/10/15 09:43:16;;;;;;;12.10;8.70;;;;;;;14.77;73.44;100040.47;138806;1193;108415;-80
2021/10/15 09:46:24;;;;;;;17.00;12.10;;;;;;;14.87;73.53;100039.48;138688;1185;108565;-81
2021/10/15 09:49:48;;;;;;;12.10;9.60;;;;;;;15.01;73.47;100030.61;139146;1192;108707;-81
2021/10/15 09:52:56;;;;;;;10.60;9.10;;;;;;;15.14;73.24;100033.42;138786;1186;108314;-81
2021/10/15 09:56:01;;;;;;;11.70;9.30;;;;;;;15.29;73.13;100029.99;139031;1185;108584;-81
2021/10/15 09:59:06;;;;;;;13.00;10.60;;;;;;;15.47;72.64;100023.29;138996;1185;108455;-81
2021/10/15 10:02:13;;;;;;;11.80;9.60;;;;;;;15.62;72.62;100016.45;138847;1186;108516;-80
2021/10/15 10:05:20;;;;;;;11.40;9.80;;;;;;;15.82;72.59;100021.46;138814;1185;108329;-80
2021/10/15 10:08:25;;;;;;;11.10;9.00;;;;;;;16.00;72.28;100016.06;138755;1186;108591;-81
2021/10/15 10:11:31;;;;;;;13.00;9.40;;;;;;;16.07;71.74;100015.98;138719;1193;108405;-81
2021/10/15 10:14:37;;;;;;;11.80;9.80;;;;;;;16.05;71.53;100014.96;138872;1190;108456;-80
2021/10/15 10:17:46;;;;;;;10.30;8.50;;;;;;;16.02;71.40;100014.23;139534;1192;108509;-81
2021/10/15 10:20:54;;;;;;;11.70;8.80;;;;;;;15.94;71.37;100011.23;139445;1187;109587;-79
2021/10/15 10:24:09;;;;;;;8.50;7.30;;;;;;;15.91;71.34;100010.15;139083;1192;108394;-80
2021/10/15 10:27:27;;;;;;;11.40;8.80;;;;;;;15.95;71.35;100008.73;139606;1192;107246;-80
2021/10/15 10:30:42;;;;;;;11.70;9.60;;;;;;;15.99;70.60;100003.02;139725;1192;108837;-80
2021/10/15 10:33:58;;;;;;;12.00;10.30;;;;;;;16.00;70.32;100001.09;139704;1185;108411;-74
2021/10/15 10:37:09;;;;;;;11.60;9.20;;;;;;;16.03;70.50;99997.72;138854;1186;108537;-78
2021/10/15 10:40:15;;;;;;;11.10;9.80;;;;;;;16.07;70.35;100000.05;138950;1193;108392;-78
2021/10/15 10:43:21;;;;;;;11.90;9.60;;;;;;;16.05;70.35;100000.10;138769;1193;108411;-78
2021/10/15 10:46:29;;;;;;;12.30;10.60;;;;;;;16.05;69.96;99991.89;138783;1186;108503;-82
2021/10/15 10:49:35;;;;;;;10.40;9.10;;;;;;;16.05;69.98;99991.28;139060;1192;107595;-80
2021/10/15 10:52:54;;;;;;;10.50;9.20;;;;;;;16.06;69.51;99985.94;138836;1190;108523;-76
2021/10/15 10:55:59;;;;;;;12.80;9.30;;;;;;;16.07;69.84;99983.51;138776;1185;108509;-77
2021/10/15 10:59:32;;;;;;;10.00;8.50;;;;;;;16.12;69.62;99976.33;139135;1185;108413;-81
2021/10/15 11:02:47;;;;;;;10.70;8.60;;;;;;;16.14;68.69;99978.04;139042;1193;108578;-81
2021/10/15 11:05:56;;;;;;;18.30;15.20;;;;;;;16.16;68.98;99978.48;138862;1186;108377;-83
2021/10/15 11:09:32;;;;;;;14.20;11.60;;;;;;;16.20;68.49;99975.07;139071;1186;107416;-87
2021/10/15 11:12:59;;;;;;;34.40;20.30;;;;;;;16.19;68.87;99972.37;138977;1186;107591;-83
2021/10/15 11:16:20;;;;;;;46.20;24.60;;;;;;;16.15;68.70;99964.41;138902;1186;108551;-81
2021/10/15 11:19:25;;;;;;;77.00;33.50;;;;;;;16.08;68.59;99956.52;138960;1192;108518;-84
2021/10/15 11:22:31;;;;;;;315.00;113.60;;;;;;;16.03;68.82;99956.48;139156;1185;108405;-84
2021/10/15 11:25:38;;;;;;;100.60;42.70;;;;;;;16.02;68.87;99954.91;138904;1192;108483;-85
2021/10/15 11:28:45;;;;;;;50.10;29.20;;;;;;;16.10;68.58;99946.20;138849;1186;109191;-82
2021/10/15 11:31:56;;;;;;;13.00;10.00;;;;;;;16.17;68.02;99943.32;139018;1194;106863;-83
2021/10/15 11:35:25;;;;;;;10.50;8.50;;;;;;;16.21;67.94;99936.42;138921;1186;108295;-80
2021/10/15 11:38:31;;;;;;;11.70;9.40;;;;;;;16.24;67.11;99932.42;138823;1186;107403;-81
2021/10/15 11:41:50;;;;;;;13.00;10.50;;;;;;;16.22;66.70;99924.26;138888;1192;108369;-81
2021/10/15 11:44:55;;;;;;;10.40;8.20;;;;;;;16.22;67.66;99919.88;138956;1186;108262;-80
2021/10/15 11:48:03;;;;;;;30.80;17.40;;;;;;;16.25;67.42;99918.44;138961;1186;108384;-81
2021/10/15 11:51:10;;;;;;;24.70;14.50;;;;;;;16.23;67.25;99914.44;139013;1186;107369;-78
2021/10/15 11:54:20;;;;;;;468.10;220.00;;;;;;;16.21;67.43;99908.52;138826;1184;108354;-79
2021/10/15 11:57:25;;;;;;;45.90;24.80;;;;;;;16.20;67.05;99909.71;138700;1184;109202;-84
2021/10/15 12:00:31;;;;;;;20.00;13.70;;;;;;;16.14;66.73;99906.00;138945;1190;108889;-80
2021/10/15 12:03:38;;;;;;;13.80;10.10;;;;;;;16.06;66.42;99908.88;138740;1193;107087;-76
2021/10/15 12:06:45;;;;;;;14.10;11.20;;;;;;;16.00;66.27;99904.98;138769;1186;108555;-82
2021/10/15 12:09:51;;;;;;;10.70;9.10;;;;;;;15.97;65.80;99895.98;138845;1192;108362;-80
2021/10/15 12:12:57;;;;;;;22.40;16.30;;;;;;;15.95;66.32;99896.43;138782;1192;107316;-78
2021/10/15 12:16:16;;;;;;;295.20;174.10;;;;;;;15.93;65.67;99892.53;138813;1193;108449;-80
2021/10/15 12:19:25;;;;;;;74.00;45.90;;;;;;;15.93;65.53;99885.99;138613;1193;107284;-80
2021/10/15 12:22:30;;;;;;;55.70;30.00;;;;;;;15.94;65.45;99888.73;139638;1192;108494;-78
2021/10/15 12:25:36;;;;;;;23.00;16.10;;;;;;;15.92;64.89;99886.52;139601;1192;108556;-79
2021/10/15 12:28:42;;;;;;;119.60;67.10;;;;;;;15.92;65.31;99887.38;139015;1185;107384;-79
2021/10/15 12:31:47;;;;;;;646.20;402.90;;;;;;;16.01;65.17;99884.34;139459;1192;108440;-78
2021/10/15 12:35:06;;;;;;;199.00;98.40;;;;;;;16.08;64.98;99885.25;138884;1190;108483;-80
2021/10/15 12:38:13;;;;;;;306.10;142.60;;;;;;;16.07;64.57;99887.89;139370;1192;108429;-78
2021/10/15 12:41:27;;;;;;;437.70;227.40;;;;;;;15.99;64.17;99892.92;139042;1192;107434;-80
2021/10/15 12:44:37;;;;;;;107.70;53.10;;;;;;;15.85;64.29;99886.14;139024;1186;108738;-79
2021/10/15 12:47:54;;;;;;;26.60;15.60;;;;;;;15.75;64.63;99889.70;139017;1192;108014;-79
2021/10/15 12:51:02;;;;;;;13.60;9.20;;;;;;;15.66;64.49;99888.09;139114;1192;109073;-80
2021/10/15 12:54:07;;;;;;;7.40;6.60;;;;;;;15.58;64.32;99883.96;139064;1192;108413;-83
2021/10/15 12:57:17;;;;;;;7.10;5.60;;;;;;;15.45;64.53;99883.41;140141;1192;108614;-78
2021/10/15 13:00:24;;;;;;;8.50;7.50;;;;;;;15.33;63.59;99879.37;139195;1192;107503;-79
2021/10/15 13:03:31;;;;;;;115.50;73.70;;;;;;;15.21;63.74;99880.81;138981;1190;108476;-74
2021/10/15 13:06:36;;;;;;;43.90;29.30;;;;;;;15.16;64.10;99883.98;138686;1186;108706;-76
2021/10/15 13:09:42;;;;;;;73.50;52.20;;;;;;;15.11;64.22;99882.45;138674;1186;108872;-77
2021/10/15 13:12:49;;;;;;;23.30;17.60;;;;;;;15.04;64.63;99883.66;138837;1190;108307;-76
2021/10/15 13:15:55;;;;;;;19.40;15.10;;;;;;;14.98;64.74;99878.51;138754;1186;108542;-75
2021/10/15 13:19:00;;;;;;;14.90;12.60;;;;;;;14.92;64.83;99877.70;138639;1192;108768;-75
2021/10/15 13:22:06;;;;;;;33.10;24.90;;;;;;;14.86;64.88;99876.48;138652;1193;108280;-75
2021/10/15 13:25:12;;;;;;;30.60;19.40;;;;;;;14.81;64.70;99877.65;138730;1186;108084;-74
2021/10/15 13:28:17;;;;;;;38.20;25.10;;;;;;;14.79;64.96;99879.17;138747;1192;106935;-76
2021/10/15 13:31:23;;;;;;;41.20;28.00;;;;;;;14.77;64.79;99873.83;138795;1187;108413;-76
2021/10/15 13:34:28;;;;;;;62.30;35.60;;;;;;;14.74;64.50;99867.34;138737;1185;108438;-74
2021/10/15 13:37:36;;;;;;;69.00;39.10;;;;;;;14.76;64.82;99857.08;138633;1190;108855;-76
2021/10/15 13:40:52;;;;;;;20.80;15.00;;;;;;;14.81;64.73;99856.84;138830;1192;108371;-74
2021/10/15 13:44:09;;;;;;;32.00;24.20;;;;;;;14.86;64.95;99856.02;138745;1193;107409;-74
2021/10/15 13:47:17;;;;;;;54.80;39.60;;;;;;;14.92;64.57;99855.96;138761;1186;108298;-76
2021/10/15 13:50:23;;;;;;;22.50;17.30;;;;;;;15.00;64.63;99856.86;138830;1185;108342;-75
2021/10/15 13:53:30;;;;;;;40.90;33.00;;;;;;;15.07;64.40;99855.77;138648;1188;107698;-73
2021/10/15 13:56:36;;;;;;;51.10;39.10;;;;;;;15.08;64.57;99858.14;138842;1190;108409;-74
2021/10/15 13:59:45;;;;;;;33.10;24.90;;;;;;;15.05;64.22;99858.15;138720;1186;108692;-75
2021/10/15 14:02:53;;;;;;;21.40;15.50;;;;;;;15.00;64.37;99857.02;138651;1192;108869;-77
2021/10/15 14:05:59;;;;;;;37.70;28.40;;;;;;;14.92;64.30;99855.46;138685;1185;108299;-76